sensor_id;sensor_type;location;lat;lon;timestamp;P1;durP1;ratioP1;P2;durP2;ratioP2
12129;SDS011;6128;59.340;18.040;2023-05-20T00:00:43;1.63;;;1.00;;
12129;SDS011;6128;59.340;18.040;2023-05-20T00:03:12;1.23;;;0.90;;
12129;SDS011;6128;59.340;18.040;2023-05-20T00:05:39;2.53;;;1.27;;
12129;SDS011;6128;59.340;18.040;2023-05-20T00:08:07;2.90;;;1.10;;
12129;SDS011;6128;59.340;18.040;2023-05-20T00:10:36;1.13;;;1.03;;
12129;SDS011;6128;59.340;18.040;2023-05-20T00:13:03;1.33;;;1.17;;
12129;SDS011;6128;59.340;18.040;2023-05-20T00:15:32;2.50;;;1.40;;
12129;SDS011;6128;59.340;18.040;2023-05-20T00:18:01;4.23;;;1.30;;
12129;SDS011;6128;59.340;18.040;2023-05-20T00:20:29;4.87;;;1.67;;
12129;SDS011;6128;59.340;18.040;2023-05-20T00:22:56;3.47;;;1.17;;
12129;SDS011;6128;59.340;18.040;2023-05-20T00:25:23;2.50;;;1.30;;
12129;SDS011;6128;59.340;18.040;2023-05-20T00:27:52;2.77;;;1.13;;
12129;SDS011;6128;59.340;18.040;2023-05-20T00:30:19;1.83;;;1.00;;
12129;SDS011;6128;59.340;18.040;2023-05-20T00:32:46;2.40;;;1.27;;
12129;SDS011;6128;59.340;18.040;2023-05-20T00:35:14;2.00;;;1.10;;
12129;SDS011;6128;59.340;18.040;2023-05-20T00:37:41;1.63;;;1.07;;
12129;SDS011;6128;59.340;18.040;2023-05-20T00:40:08;3.63;;;1.43;;
12129;SDS011;6128;59.340;18.040;2023-05-20T00:42:36;4.63;;;1.50;;
12129;SDS011;6128;59.340;18.040;2023-05-20T00:45:05;3.33;;;1.60;;
12129;SDS011;6128;59.340;18.040;2023-05-20T00:47:33;2.80;;;1.20;;
12129;SDS011;6128;59.340;18.040;2023-05-20T00:50:01;2.47;;;1.10;;
12129;SDS011;6128;59.340;18.040;2023-05-20T00:52:30;3.60;;;1.60;;
12129;SDS011;6128;59.340;18.040;2023-05-20T00:54:58;4.43;;;1.10;;
12129;SDS011;6128;59.340;18.040;2023-05-20T00:57:26;4.63;;;1.57;;
12129;SDS011;6128;59.340;18.040;2023-05-20T00:59:53;2.57;;;1.40;;
12129;SDS011;6128;59.340;18.040;2023-05-20T01:02:22;3.97;;;1.60;;
12129;SDS011;6128;59.340;18.040;2023-05-20T01:04:49;3.20;;;1.20;;
12129;SDS011;6128;59.340;18.040;2023-05-20T01:07:17;3.30;;;1.60;;
12129;SDS011;6128;59.340;18.040;2023-05-20T01:09:45;2.40;;;1.30;;
12129;SDS011;6128;59.340;18.040;2023-05-20T01:12:14;2.63;;;1.53;;
12129;SDS011;6128;59.340;18.040;2023-05-20T01:14:45;1.57;;;1.10;;
12129;SDS011;6128;59.340;18.040;2023-05-20T01:17:14;3.17;;;1.50;;
12129;SDS011;6128;59.340;18.040;2023-05-20T01:19:46;3.63;;;1.47;;
12129;SDS011;6128;59.340;18.040;2023-05-20T01:22:14;3.23;;;1.30;;
12129;SDS011;6128;59.340;18.040;2023-05-20T01:24:43;3.37;;;1.50;;
12129;SDS011;6128;59.340;18.040;2023-05-20T01:27:12;2.53;;;1.40;;
12129;SDS011;6128;59.340;18.040;2023-05-20T01:29:40;4.40;;;1.40;;
12129;SDS011;6128;59.340;18.040;2023-05-20T01:32:10;2.47;;;1.87;;
12129;SDS011;6128;59.340;18.040;2023-05-20T01:34:46;2.57;;;1.43;;
12129;SDS011;6128;59.340;18.040;2023-05-20T01:37:15;5.07;;;1.73;;
12129;SDS011;6128;59.340;18.040;2023-05-20T01:39:45;3.37;;;1.27;;
12129;SDS011;6128;59.340;18.040;2023-05-20T01:42:14;3.97;;;1.70;;
12129;SDS011;6128;59.340;18.040;2023-05-20T01:44:42;3.43;;;1.53;;
12129;SDS011;6128;59.340;18.040;2023-05-20T01:47:10;2.70;;;1.70;;
12129;SDS011;6128;59.340;18.040;2023-05-20T01:49:37;1.80;;;1.10;;
12129;SDS011;6128;59.340;18.040;2023-05-20T01:52:04;3.77;;;1.47;;
12129;SDS011;6128;59.340;18.040;2023-05-20T01:54:31;3.70;;;1.40;;
12129;SDS011;6128;59.340;18.040;2023-05-20T01:57:00;5.60;;;1.50;;
12129;SDS011;6128;59.340;18.040;2023-05-20T01:59:27;6.47;;;1.60;;
12129;SDS011;6128;59.340;18.040;2023-05-20T02:01:55;2.10;;;1.10;;
12129;SDS011;6128;59.340;18.040;2023-05-20T02:04:22;2.03;;;1.03;;
12129;SDS011;6128;59.340;18.040;2023-05-20T02:06:49;2.63;;;1.30;;
12129;SDS011;6128;59.340;18.040;2023-05-20T02:09:17;3.80;;;1.57;;
12129;SDS011;6128;59.340;18.040;2023-05-20T02:11:44;4.20;;;1.33;;
12129;SDS011;6128;59.340;18.040;2023-05-20T02:14:12;2.17;;;1.10;;
12129;SDS011;6128;59.340;18.040;2023-05-20T02:16:39;3.40;;;1.27;;
12129;SDS011;6128;59.340;18.040;2023-05-20T02:19:07;3.03;;;1.30;;
12129;SDS011;6128;59.340;18.040;2023-05-20T02:21:37;1.53;;;1.20;;
12129;SDS011;6128;59.340;18.040;2023-05-20T02:24:05;2.30;;;1.30;;
12129;SDS011;6128;59.340;18.040;2023-05-20T02:26:33;2.03;;;1.07;;
12129;SDS011;6128;59.340;18.040;2023-05-20T02:29:00;2.63;;;1.00;;
12129;SDS011;6128;59.340;18.040;2023-05-20T02:31:30;2.40;;;1.10;;
12129;SDS011;6128;59.340;18.040;2023-05-20T02:33:57;2.17;;;1.13;;
12129;SDS011;6128;59.340;18.040;2023-05-20T02:36:24;3.30;;;1.00;;
12129;SDS011;6128;59.340;18.040;2023-05-20T02:38:52;3.47;;;1.17;;
12129;SDS011;6128;59.340;18.040;2023-05-20T02:41:20;1.33;;;0.93;;
12129;SDS011;6128;59.340;18.040;2023-05-20T02:43:48;3.27;;;1.17;;
12129;SDS011;6128;59.340;18.040;2023-05-20T02:46:15;1.73;;;0.97;;
12129;SDS011;6128;59.340;18.040;2023-05-20T02:48:44;1.83;;;1.00;;
12129;SDS011;6128;59.340;18.040;2023-05-20T02:51:11;2.80;;;1.03;;
12129;SDS011;6128;59.340;18.040;2023-05-20T02:53:38;2.07;;;1.00;;
12129;SDS011;6128;59.340;18.040;2023-05-20T02:56:06;2.67;;;1.23;;
12129;SDS011;6128;59.340;18.040;2023-05-20T02:58:33;2.43;;;1.20;;
12129;SDS011;6128;59.340;18.040;2023-05-20T03:01:01;2.23;;;1.23;;
12129;SDS011;6128;59.340;18.040;2023-05-20T03:03:28;3.73;;;1.20;;
12129;SDS011;6128;59.340;18.040;2023-05-20T03:05:56;2.00;;;0.87;;
12129;SDS011;6128;59.340;18.040;2023-05-20T03:08:24;1.60;;;1.17;;
12129;SDS011;6128;59.340;18.040;2023-05-20T03:10:51;3.17;;;1.67;;
12129;SDS011;6128;59.340;18.040;2023-05-20T03:13:18;2.10;;;1.17;;
12129;SDS011;6128;59.340;18.040;2023-05-20T03:15:45;2.67;;;1.00;;
12129;SDS011;6128;59.340;18.040;2023-05-20T03:18:12;2.77;;;1.27;;
12129;SDS011;6128;59.340;18.040;2023-05-20T03:20:39;2.33;;;0.97;;
12129;SDS011;6128;59.340;18.040;2023-05-20T03:23:09;3.20;;;1.00;;
12129;SDS011;6128;59.340;18.040;2023-05-20T03:25:36;2.57;;;1.13;;
12129;SDS011;6128;59.340;18.040;2023-05-20T03:28:04;1.70;;;0.87;;
12129;SDS011;6128;59.340;18.040;2023-05-20T03:30:31;1.83;;;1.30;;
12129;SDS011;6128;59.340;18.040;2023-05-20T03:32:58;1.80;;;1.00;;
12129;SDS011;6128;59.340;18.040;2023-05-20T03:35:27;1.40;;;0.80;;
12129;SDS011;6128;59.340;18.040;2023-05-20T03:37:54;1.47;;;0.90;;
12129;SDS011;6128;59.340;18.040;2023-05-20T03:40:22;2.00;;;0.90;;
12129;SDS011;6128;59.340;18.040;2023-05-20T03:42:49;1.40;;;1.10;;
12129;SDS011;6128;59.340;18.040;2023-05-20T03:45:17;2.00;;;1.27;;
12129;SDS011;6128;59.340;18.040;2023-05-20T03:47:44;1.83;;;0.87;;
12129;SDS011;6128;59.340;18.040;2023-05-20T03:50:11;2.37;;;1.00;;
12129;SDS011;6128;59.340;18.040;2023-05-20T03:52:39;1.90;;;0.80;;
12129;SDS011;6128;59.340;18.040;2023-05-20T03:55:06;2.27;;;1.17;;
12129;SDS011;6128;59.340;18.040;2023-05-20T03:57:35;1.50;;;0.93;;
12129;SDS011;6128;59.340;18.040;2023-05-20T04:00:02;2.43;;;1.13;;
12129;SDS011;6128;59.340;18.040;2023-05-20T04:02:35;1.90;;;0.80;;
12129;SDS011;6128;59.340;18.040;2023-05-20T04:05:02;2.37;;;0.97;;
12129;SDS011;6128;59.340;18.040;2023-05-20T04:07:30;2.80;;;1.30;;
12129;SDS011;6128;59.340;18.040;2023-05-20T04:09:57;2.33;;;1.00;;
12129;SDS011;6128;59.340;18.040;2023-05-20T04:12:24;3.20;;;0.80;;
12129;SDS011;6128;59.340;18.040;2023-05-20T04:14:56;1.57;;;1.00;;
12129;SDS011;6128;59.340;18.040;2023-05-20T04:17:25;1.60;;;0.90;;
12129;SDS011;6128;59.340;18.040;2023-05-20T04:19:54;2.13;;;0.90;;
12129;SDS011;6128;59.340;18.040;2023-05-20T04:22:22;2.10;;;0.93;;
12129;SDS011;6128;59.340;18.040;2023-05-20T04:24:49;1.93;;;0.70;;
12129;SDS011;6128;59.340;18.040;2023-05-20T04:27:16;1.50;;;0.70;;
12129;SDS011;6128;59.340;18.040;2023-05-20T04:29:45;1.60;;;0.70;;
12129;SDS011;6128;59.340;18.040;2023-05-20T04:32:15;1.30;;;0.70;;
12129;SDS011;6128;59.340;18.040;2023-05-20T04:34:44;3.07;;;0.60;;
12129;SDS011;6128;59.340;18.040;2023-05-20T04:37:12;1.60;;;0.50;;
12129;SDS011;6128;59.340;18.040;2023-05-20T04:39:39;2.00;;;0.90;;
12129;SDS011;6128;59.340;18.040;2023-05-20T04:42:07;2.07;;;1.03;;
12129;SDS011;6128;59.340;18.040;2023-05-20T04:44:35;2.00;;;0.90;;
12129;SDS011;6128;59.340;18.040;2023-05-20T04:47:02;1.37;;;0.57;;
12129;SDS011;6128;59.340;18.040;2023-05-20T04:49:33;2.70;;;0.60;;
12129;SDS011;6128;59.340;18.040;2023-05-20T04:52:00;2.50;;;1.07;;
12129;SDS011;6128;59.340;18.040;2023-05-20T04:54:28;1.63;;;0.70;;
12129;SDS011;6128;59.340;18.040;2023-05-20T04:56:56;2.60;;;0.87;;
12129;SDS011;6128;59.340;18.040;2023-05-20T04:59:24;2.30;;;0.83;;
12129;SDS011;6128;59.340;18.040;2023-05-20T05:01:51;1.20;;;0.60;;
12129;SDS011;6128;59.340;18.040;2023-05-20T05:04:18;1.57;;;0.80;;
12129;SDS011;6128;59.340;18.040;2023-05-20T05:06:48;3.33;;;0.70;;
12129;SDS011;6128;59.340;18.040;2023-05-20T05:09:15;2.30;;;0.73;;
12129;SDS011;6128;59.340;18.040;2023-05-20T05:11:42;2.10;;;0.70;;
12129;SDS011;6128;59.340;18.040;2023-05-20T05:14:09;3.13;;;0.80;;
12129;SDS011;6128;59.340;18.040;2023-05-20T05:16:36;1.87;;;0.67;;
12129;SDS011;6128;59.340;18.040;2023-05-20T05:19:04;0.73;;;0.70;;
12129;SDS011;6128;59.340;18.040;2023-05-20T05:21:31;2.03;;;0.90;;
12129;SDS011;6128;59.340;18.040;2023-05-20T05:24:00;2.67;;;0.60;;
12129;SDS011;6128;59.340;18.040;2023-05-20T05:26:27;2.07;;;0.70;;
12129;SDS011;6128;59.340;18.040;2023-05-20T05:28:54;2.27;;;0.70;;
12129;SDS011;6128;59.340;18.040;2023-05-20T05:31:21;1.20;;;0.83;;
12129;SDS011;6128;59.340;18.040;2023-05-20T05:33:48;1.40;;;0.80;;
12129;SDS011;6128;59.340;18.040;2023-05-20T05:36:15;1.17;;;0.67;;
12129;SDS011;6128;59.340;18.040;2023-05-20T05:38:42;1.70;;;0.80;;
12129;SDS011;6128;59.340;18.040;2023-05-20T05:41:11;1.43;;;0.87;;
12129;SDS011;6128;59.340;18.040;2023-05-20T05:43:38;2.63;;;0.70;;
12129;SDS011;6128;59.340;18.040;2023-05-20T05:46:05;1.53;;;0.73;;
12129;SDS011;6128;59.340;18.040;2023-05-20T05:48:34;1.73;;;0.70;;
12129;SDS011;6128;59.340;18.040;2023-05-20T05:51:03;2.03;;;0.73;;
12129;SDS011;6128;59.340;18.040;2023-05-20T05:53:30;1.97;;;0.83;;
12129;SDS011;6128;59.340;18.040;2023-05-20T05:55:57;2.77;;;0.70;;
12129;SDS011;6128;59.340;18.040;2023-05-20T05:58:26;2.00;;;0.70;;
12129;SDS011;6128;59.340;18.040;2023-05-20T06:00:58;2.13;;;0.60;;
12129;SDS011;6128;59.340;18.040;2023-05-20T06:03:27;1.47;;;0.70;;
12129;SDS011;6128;59.340;18.040;2023-05-20T06:05:55;2.27;;;0.60;;
12129;SDS011;6128;59.340;18.040;2023-05-20T06:08:22;1.07;;;0.90;;
12129;SDS011;6128;59.340;18.040;2023-05-20T06:10:49;1.10;;;0.70;;
12129;SDS011;6128;59.340;18.040;2023-05-20T06:13:17;1.47;;;0.77;;
12129;SDS011;6128;59.340;18.040;2023-05-20T06:15:45;1.70;;;0.70;;
12129;SDS011;6128;59.340;18.040;2023-05-20T06:18:15;2.10;;;0.60;;
12129;SDS011;6128;59.340;18.040;2023-05-20T06:20:42;1.33;;;0.65;;
12129;SDS011;6128;59.340;18.040;2023-05-20T06:23:09;2.22;;;0.60;;
12129;SDS011;6128;59.340;18.040;2023-05-20T06:25:36;1.00;;;0.68;;
12129;SDS011;6128;59.340;18.040;2023-05-20T06:28:03;1.35;;;0.80;;
12129;SDS011;6128;59.340;18.040;2023-05-20T06:30:32;0.98;;;0.60;;
12129;SDS011;6128;59.340;18.040;2023-05-20T06:33:00;1.00;;;0.60;;
12129;SDS011;6128;59.340;18.040;2023-05-20T06:35:28;1.38;;;0.73;;
12129;SDS011;6128;59.340;18.040;2023-05-20T06:37:55;1.73;;;0.60;;
12129;SDS011;6128;59.340;18.040;2023-05-20T06:40:22;3.20;;;0.80;;
12129;SDS011;6128;59.340;18.040;2023-05-20T06:42:51;1.75;;;0.70;;
12129;SDS011;6128;59.340;18.040;2023-05-20T06:45:18;1.15;;;0.50;;
12129;SDS011;6128;59.340;18.040;2023-05-20T06:47:46;1.73;;;0.50;;
12129;SDS011;6128;59.340;18.040;2023-05-20T06:50:15;1.23;;;0.50;;
12129;SDS011;6128;59.340;18.040;2023-05-20T06:52:42;2.35;;;0.45;;
12129;SDS011;6128;59.340;18.040;2023-05-20T06:55:10;1.90;;;0.70;;
12129;SDS011;6128;59.340;18.040;2023-05-20T06:57:37;1.58;;;0.50;;
12129;SDS011;6128;59.340;18.040;2023-05-20T07:00:04;1.75;;;0.60;;
12129;SDS011;6128;59.340;18.040;2023-05-20T07:02:33;1.45;;;0.70;;
12129;SDS011;6128;59.340;18.040;2023-05-20T07:05:00;1.08;;;0.52;;
12129;SDS011;6128;59.340;18.040;2023-05-20T07:07:29;1.35;;;0.70;;
12129;SDS011;6128;59.340;18.040;2023-05-20T07:09:56;1.52;;;0.60;;
12129;SDS011;6128;59.340;18.040;2023-05-20T07:12:23;1.33;;;0.60;;
12129;SDS011;6128;59.340;18.040;2023-05-20T07:14:50;1.15;;;0.55;;
12129;SDS011;6128;59.340;18.040;2023-05-20T07:17:18;1.05;;;0.60;;
12129;SDS011;6128;59.340;18.040;2023-05-20T07:19:45;1.52;;;0.77;;
12129;SDS011;6128;59.340;18.040;2023-05-20T07:22:13;0.90;;;0.60;;
12129;SDS011;6128;59.340;18.040;2023-05-20T07:24:41;0.75;;;0.50;;
12129;SDS011;6128;59.340;18.040;2023-05-20T07:27:08;1.02;;;0.65;;
12129;SDS011;6128;59.340;18.040;2023-05-20T07:29:36;0.80;;;0.52;;
12129;SDS011;6128;59.340;18.040;2023-05-20T07:32:03;1.55;;;0.60;;
12129;SDS011;6128;59.340;18.040;2023-05-20T07:34:31;2.30;;;0.75;;
12129;SDS011;6128;59.340;18.040;2023-05-20T07:36:58;0.85;;;0.55;;
12129;SDS011;6128;59.340;18.040;2023-05-20T07:39:25;0.98;;;0.50;;
12129;SDS011;6128;59.340;18.040;2023-05-20T07:41:54;1.23;;;0.68;;
12129;SDS011;6128;59.340;18.040;2023-05-20T07:44:21;1.02;;;0.70;;
12129;SDS011;6128;59.340;18.040;2023-05-20T07:46:49;2.97;;;0.75;;
12129;SDS011;6128;59.340;18.040;2023-05-20T07:49:16;1.80;;;0.70;;
12129;SDS011;6128;59.340;18.040;2023-05-20T07:51:43;1.33;;;0.60;;
12129;SDS011;6128;59.340;18.040;2023-05-20T07:54:11;1.38;;;0.60;;
12129;SDS011;6128;59.340;18.040;2023-05-20T07:56:39;1.98;;;0.60;;
12129;SDS011;6128;59.340;18.040;2023-05-20T07:59:07;0.63;;;0.52;;
12129;SDS011;6128;59.340;18.040;2023-05-20T08:01:35;0.75;;;0.50;;
12129;SDS011;6128;59.340;18.040;2023-05-20T08:04:02;1.20;;;0.90;;
12129;SDS011;6128;59.340;18.040;2023-05-20T08:06:29;2.35;;;0.40;;
12129;SDS011;6128;59.340;18.040;2023-05-20T08:08:57;1.73;;;0.60;;
12129;SDS011;6128;59.340;18.040;2023-05-20T08:11:25;1.58;;;0.63;;
12129;SDS011;6128;59.340;18.040;2023-05-20T08:13:53;0.80;;;0.50;;
12129;SDS011;6128;59.340;18.040;2023-05-20T08:16:21;0.88;;;0.65;;
12129;SDS011;6128;59.340;18.040;2023-05-20T08:18:48;2.00;;;0.60;;
12129;SDS011;6128;59.340;18.040;2023-05-20T08:21:16;0.80;;;0.50;;
12129;SDS011;6128;59.340;18.040;2023-05-20T08:23:43;1.90;;;0.80;;
12129;SDS011;6128;59.340;18.040;2023-05-20T08:26:10;1.45;;;0.70;;
12129;SDS011;6128;59.340;18.040;2023-05-20T08:28:38;1.63;;;0.70;;
12129;SDS011;6128;59.340;18.040;2023-05-20T08:31:05;3.05;;;0.70;;
12129;SDS011;6128;59.340;18.040;2023-05-20T08:33:34;2.03;;;0.60;;
12129;SDS011;6128;59.340;18.040;2023-05-20T08:36:01;0.90;;;0.50;;
12129;SDS011;6128;59.340;18.040;2023-05-20T08:38:28;1.63;;;1.00;;
12129;SDS011;6128;59.340;18.040;2023-05-20T08:40:55;1.20;;;0.73;;
12129;SDS011;6128;59.340;18.040;2023-05-20T08:43:25;1.80;;;0.70;;
12129;SDS011;6128;59.340;18.040;2023-05-20T08:45:54;0.40;;;0.40;;
12129;SDS011;6128;59.340;18.040;2023-05-20T08:48:22;1.40;;;0.63;;
12129;SDS011;6128;59.340;18.040;2023-05-20T08:50:53;2.05;;;0.60;;
12129;SDS011;6128;59.340;18.040;2023-05-20T08:53:23;0.80;;;0.63;;
12129;SDS011;6128;59.340;18.040;2023-05-20T08:55:51;2.15;;;0.82;;
12129;SDS011;6128;59.340;18.040;2023-05-20T08:58:21;1.75;;;0.60;;
12129;SDS011;6128;59.340;18.040;2023-05-20T09:00:49;0.80;;;0.45;;
12129;SDS011;6128;59.340;18.040;2023-05-20T09:03:17;1.05;;;0.60;;
12129;SDS011;6128;59.340;18.040;2023-05-20T09:05:45;1.25;;;0.60;;
12129;SDS011;6128;59.340;18.040;2023-05-20T09:08:14;0.80;;;0.60;;
12129;SDS011;6128;59.340;18.040;2023-05-20T09:10:43;1.10;;;0.60;;
12129;SDS011;6128;59.340;18.040;2023-05-20T09:13:10;0.88;;;0.50;;
12129;SDS011;6128;59.340;18.040;2023-05-20T09:15:37;1.73;;;0.73;;
12129;SDS011;6128;59.340;18.040;2023-05-20T09:18:06;0.95;;;0.60;;
12129;SDS011;6128;59.340;18.040;2023-05-20T09:20:34;0.77;;;0.60;;
12129;SDS011;6128;59.340;18.040;2023-05-20T09:23:03;1.60;;;0.60;;
12129;SDS011;6128;59.340;18.040;2023-05-20T09:25:32;0.55;;;0.40;;
12129;SDS011;6128;59.340;18.040;2023-05-20T09:28:01;0.90;;;0.50;;
12129;SDS011;6128;59.340;18.040;2023-05-20T09:30:30;1.50;;;0.50;;
12129;SDS011;6128;59.340;18.040;2023-05-20T09:32:59;2.30;;;0.60;;
12129;SDS011;6128;59.340;18.040;2023-05-20T09:35:29;0.57;;;0.57;;
12129;SDS011;6128;59.340;18.040;2023-05-20T09:37:56;1.00;;;0.65;;
12129;SDS011;6128;59.340;18.040;2023-05-20T09:40:24;0.70;;;0.70;;
12129;SDS011;6128;59.340;18.040;2023-05-20T09:42:55;1.27;;;0.55;;
12129;SDS011;6128;59.340;18.040;2023-05-20T09:45:26;2.20;;;0.70;;
12129;SDS011;6128;59.340;18.040;2023-05-20T09:47:54;1.30;;;0.90;;
12129;SDS011;6128;59.340;18.040;2023-05-20T09:50:22;1.75;;;0.60;;
12129;SDS011;6128;59.340;18.040;2023-05-20T09:52:51;1.50;;;0.50;;
12129;SDS011;6128;59.340;18.040;2023-05-20T09:55:20;0.90;;;0.50;;
12129;SDS011;6128;59.340;18.040;2023-05-20T09:57:49;0.60;;;0.60;;
12129;SDS011;6128;59.340;18.040;2023-05-20T10:00:18;0.60;;;0.60;;
12129;SDS011;6128;59.340;18.040;2023-05-20T10:02:46;0.70;;;0.50;;
12129;SDS011;6128;59.340;18.040;2023-05-20T10:05:16;1.50;;;0.50;;
12129;SDS011;6128;59.340;18.040;2023-05-20T10:07:57;1.30;;;0.70;;
12129;SDS011;6128;59.340;18.040;2023-05-20T10:10:43;2.37;;;0.87;;
12129;SDS011;6128;59.340;18.040;2023-05-20T10:13:21;0.73;;;0.50;;
12129;SDS011;6128;59.340;18.040;2023-05-20T10:16:00;0.50;;;0.40;;
12129;SDS011;6128;59.340;18.040;2023-05-20T10:18:38;1.07;;;0.70;;
12129;SDS011;6128;59.340;18.040;2023-05-20T10:21:15;0.80;;;0.60;;
12129;SDS011;6128;59.340;18.040;2023-05-20T10:23:43;0.57;;;0.47;;
12129;SDS011;6128;59.340;18.040;2023-05-20T10:26:11;0.90;;;0.47;;
12129;SDS011;6128;59.340;18.040;2023-05-20T10:28:39;1.50;;;0.53;;
12129;SDS011;6128;59.340;18.040;2023-05-20T10:31:19;1.90;;;0.83;;
12129;SDS011;6128;59.340;18.040;2023-05-20T10:33:47;1.73;;;0.67;;
12129;SDS011;6128;59.340;18.040;2023-05-20T10:36:21;0.67;;;0.53;;
12129;SDS011;6128;59.340;18.040;2023-05-20T10:38:51;0.70;;;0.50;;
12129;SDS011;6128;59.340;18.040;2023-05-20T10:41:19;0.53;;;0.50;;
12129;SDS011;6128;59.340;18.040;2023-05-20T10:43:58;0.50;;;0.50;;
12129;SDS011;6128;59.340;18.040;2023-05-20T10:46:28;1.03;;;0.40;;
12129;SDS011;6128;59.340;18.040;2023-05-20T10:48:55;0.30;;;0.30;;
12129;SDS011;6128;59.340;18.040;2023-05-20T10:51:23;1.60;;;0.50;;
12129;SDS011;6128;59.340;18.040;2023-05-20T10:53:53;2.10;;;0.80;;
12129;SDS011;6128;59.340;18.040;2023-05-20T10:56:21;2.20;;;0.53;;
12129;SDS011;6128;59.340;18.040;2023-05-20T10:58:50;0.93;;;0.70;;
12129;SDS011;6128;59.340;18.040;2023-05-20T11:01:24;1.80;;;0.57;;
12129;SDS011;6128;59.340;18.040;2023-05-20T11:03:54;1.67;;;0.50;;
12129;SDS011;6128;59.340;18.040;2023-05-20T11:06:25;0.50;;;0.40;;
12129;SDS011;6128;59.340;18.040;2023-05-20T11:08:53;1.73;;;0.97;;
12129;SDS011;6128;59.340;18.040;2023-05-20T11:11:21;1.53;;;0.70;;
12129;SDS011;6128;59.340;18.040;2023-05-20T11:13:51;1.83;;;0.97;;
12129;SDS011;6128;59.340;18.040;2023-05-20T11:16:19;0.97;;;0.50;;
12129;SDS011;6128;59.340;18.040;2023-05-20T11:18:47;0.73;;;0.67;;
12129;SDS011;6128;59.340;18.040;2023-05-20T11:21:16;1.90;;;0.70;;
12129;SDS011;6128;59.340;18.040;2023-05-20T11:23:44;1.60;;;0.77;;
12129;SDS011;6128;59.340;18.040;2023-05-20T11:26:11;1.07;;;0.60;;
12129;SDS011;6128;59.340;18.040;2023-05-20T11:28:39;0.90;;;0.63;;
12129;SDS011;6128;59.340;18.040;2023-05-20T11:31:06;1.60;;;0.60;;
12129;SDS011;6128;59.340;18.040;2023-05-20T11:33:33;0.80;;;0.50;;
12129;SDS011;6128;59.340;18.040;2023-05-20T11:36:01;0.50;;;0.47;;
12129;SDS011;6128;59.340;18.040;2023-05-20T11:38:30;0.50;;;0.50;;
12129;SDS011;6128;59.340;18.040;2023-05-20T11:40:57;2.13;;;0.45;;
12129;SDS011;6128;59.340;18.040;2023-05-20T11:43:24;0.83;;;0.60;;
12129;SDS011;6128;59.340;18.040;2023-05-20T11:45:52;1.10;;;0.80;;
12129;SDS011;6128;59.340;18.040;2023-05-20T11:48:22;1.42;;;0.65;;
12129;SDS011;6128;59.340;18.040;2023-05-20T11:50:49;0.75;;;0.50;;
12129;SDS011;6128;59.340;18.040;2023-05-20T11:53:22;1.45;;;1.02;;
12129;SDS011;6128;59.340;18.040;2023-05-20T11:55:52;1.27;;;0.60;;
12129;SDS011;6128;59.340;18.040;2023-05-20T11:58:21;1.50;;;0.40;;
12129;SDS011;6128;59.340;18.040;2023-05-20T12:00:49;1.70;;;0.52;;
12129;SDS011;6128;59.340;18.040;2023-05-20T12:03:16;1.60;;;0.60;;
12129;SDS011;6128;59.340;18.040;2023-05-20T12:05:44;1.05;;;0.68;;
12129;SDS011;6128;59.340;18.040;2023-05-20T12:08:12;0.68;;;0.50;;
12129;SDS011;6128;59.340;18.040;2023-05-20T12:10:40;1.52;;;0.60;;
12129;SDS011;6128;59.340;18.040;2023-05-20T12:13:10;1.25;;;0.85;;
12129;SDS011;6128;59.340;18.040;2023-05-20T12:15:38;1.67;;;0.70;;
12129;SDS011;6128;59.340;18.040;2023-05-20T12:18:05;4.22;;;0.90;;
12129;SDS011;6128;59.340;18.040;2023-05-20T12:20:32;1.40;;;1.00;;
12129;SDS011;6128;59.340;18.040;2023-05-20T12:23:01;1.30;;;0.50;;
12129;SDS011;6128;59.340;18.040;2023-05-20T12:25:28;1.13;;;0.68;;
12129;SDS011;6128;59.340;18.040;2023-05-20T12:27:56;3.77;;;0.90;;
12129;SDS011;6128;59.340;18.040;2023-05-20T12:30:26;1.60;;;0.80;;
12129;SDS011;6128;59.340;18.040;2023-05-20T12:32:53;1.33;;;0.60;;
12129;SDS011;6128;59.340;18.040;2023-05-20T12:35:23;1.50;;;0.50;;
12129;SDS011;6128;59.340;18.040;2023-05-20T12:37:51;1.27;;;0.30;;
12129;SDS011;6128;59.340;18.040;2023-05-20T12:40:18;0.80;;;0.50;;
12129;SDS011;6128;59.340;18.040;2023-05-20T12:42:46;0.80;;;0.53;;
12129;SDS011;6128;59.340;18.040;2023-05-20T12:45:13;2.07;;;0.50;;
12129;SDS011;6128;59.340;18.040;2023-05-20T12:47:42;1.70;;;0.50;;
12129;SDS011;6128;59.340;18.040;2023-05-20T12:50:10;0.87;;;0.50;;
12129;SDS011;6128;59.340;18.040;2023-05-20T12:52:38;0.73;;;0.43;;
12129;SDS011;6128;59.340;18.040;2023-05-20T12:55:06;2.10;;;0.60;;
12129;SDS011;6128;59.340;18.040;2023-05-20T12:57:38;2.10;;;0.60;;
12129;SDS011;6128;59.340;18.040;2023-05-20T13:00:06;1.90;;;0.80;;
12129;SDS011;6128;59.340;18.040;2023-05-20T13:02:34;1.17;;;0.60;;
12129;SDS011;6128;59.340;18.040;2023-05-20T13:05:04;0.70;;;0.50;;
12129;SDS011;6128;59.340;18.040;2023-05-20T13:07:33;1.23;;;0.60;;
12129;SDS011;6128;59.340;18.040;2023-05-20T13:10:01;2.23;;;0.83;;
12129;SDS011;6128;59.340;18.040;2023-05-20T13:12:28;3.90;;;0.90;;
12129;SDS011;6128;59.340;18.040;2023-05-20T13:14:56;0.60;;;0.60;;
12129;SDS011;6128;59.340;18.040;2023-05-20T13:17:23;1.70;;;1.00;;
12129;SDS011;6128;59.340;18.040;2023-05-20T13:19:51;1.23;;;0.70;;
12129;SDS011;6128;59.340;18.040;2023-05-20T13:22:20;1.07;;;0.57;;
12129;SDS011;6128;59.340;18.040;2023-05-20T13:24:47;2.40;;;0.67;;
12129;SDS011;6128;59.340;18.040;2023-05-20T13:27:14;1.77;;;1.00;;
12129;SDS011;6128;59.340;18.040;2023-05-20T13:29:41;0.67;;;0.50;;
12129;SDS011;6128;59.340;18.040;2023-05-20T13:32:08;0.90;;;0.60;;
12129;SDS011;6128;59.340;18.040;2023-05-20T13:34:36;1.17;;;0.80;;
12129;SDS011;6128;59.340;18.040;2023-05-20T13:37:03;0.70;;;0.70;;
12129;SDS011;6128;59.340;18.040;2023-05-20T13:39:31;1.30;;;0.70;;
12129;SDS011;6128;59.340;18.040;2023-05-20T13:41:59;1.10;;;0.63;;
12129;SDS011;6128;59.340;18.040;2023-05-20T13:44:26;1.25;;;0.65;;
12129;SDS011;6128;59.340;18.040;2023-05-20T13:46:53;4.33;;;0.80;;
12129;SDS011;6128;59.340;18.040;2023-05-20T13:49:21;2.33;;;0.73;;
12129;SDS011;6128;59.340;18.040;2023-05-20T13:51:49;0.93;;;0.50;;
12129;SDS011;6128;59.340;18.040;2023-05-20T13:54:16;1.47;;;0.60;;
12129;SDS011;6128;59.340;18.040;2023-05-20T13:56:45;1.00;;;0.50;;
12129;SDS011;6128;59.340;18.040;2023-05-20T13:59:12;2.67;;;0.60;;
12129;SDS011;6128;59.340;18.040;2023-05-20T14:01:39;2.90;;;0.60;;
12129;SDS011;6128;59.340;18.040;2023-05-20T14:04:09;1.80;;;0.70;;
12129;SDS011;6128;59.340;18.040;2023-05-20T14:06:37;3.10;;;0.60;;
12129;SDS011;6128;59.340;18.040;2023-05-20T14:09:05;3.83;;;1.03;;
12129;SDS011;6128;59.340;18.040;2023-05-20T14:11:33;2.03;;;0.70;;
12129;SDS011;6128;59.340;18.040;2023-05-20T14:14:02;8.70;;;0.87;;
12129;SDS011;6128;59.340;18.040;2023-05-20T14:16:30;1.43;;;0.47;;
12129;SDS011;6128;59.340;18.040;2023-05-20T14:18:57;1.50;;;0.70;;
12129;SDS011;6128;59.340;18.040;2023-05-20T14:21:24;1.07;;;0.50;;
12129;SDS011;6128;59.340;18.040;2023-05-20T14:23:51;0.75;;;0.43;;
12129;SDS011;6128;59.340;18.040;2023-05-20T14:26:19;1.53;;;0.77;;
12129;SDS011;6128;59.340;18.040;2023-05-20T14:28:46;1.00;;;0.43;;
12129;SDS011;6128;59.340;18.040;2023-05-20T14:31:15;1.55;;;0.40;;
12129;SDS011;6128;59.340;18.040;2023-05-20T14:33:42;2.50;;;0.50;;
12129;SDS011;6128;59.340;18.040;2023-05-20T14:36:09;2.20;;;0.50;;
12129;SDS011;6128;59.340;18.040;2023-05-20T14:38:37;3.10;;;0.80;;
12129;SDS011;6128;59.340;18.040;2023-05-20T14:41:04;2.67;;;0.80;;
12129;SDS011;6128;59.340;18.040;2023-05-20T14:43:31;0.80;;;0.60;;
12129;SDS011;6128;59.340;18.040;2023-05-20T14:45:58;3.13;;;0.85;;
12129;SDS011;6128;59.340;18.040;2023-05-20T14:48:27;2.23;;;0.83;;
12129;SDS011;6128;59.340;18.040;2023-05-20T14:50:54;1.70;;;0.63;;
12129;SDS011;6128;59.340;18.040;2023-05-20T14:53:21;1.93;;;0.57;;